createdAt,value
2023-04-21T00:00:52.589Z,100779.19
2023-04-21T00:03:20.276Z,100790.38
2023-04-21T00:05:47.035Z,100790.84
2023-04-21T00:08:13.882Z,100792.81
2023-04-21T00:10:40.598Z,100794.06
2023-04-21T00:13:07.243Z,100794.53
2023-04-21T00:15:33.622Z,100791.38
2023-04-21T00:18:01.729Z,100792.63
2023-04-21T00:20:28.320Z,100796.69
2023-04-21T00:22:55.817Z,100796.78
2023-04-21T00:25:22.980Z,100798.03
2023-04-21T00:27:49.604Z,100795.69
2023-04-21T00:30:16.487Z,100791.34
2023-04-21T00:32:43.186Z,100789.44
2023-04-21T00:35:10.579Z,100783.94
2023-04-21T00:37:37.047Z,100776.81
2023-04-21T00:40:04.757Z,100778.06
2023-04-21T00:42:31.568Z,100774.53
2023-04-21T00:44:57.911Z,100774.63
2023-04-21T00:47:24.652Z,100780.69
2023-04-21T00:49:51.335Z,100779.94
2023-04-21T00:52:18.618Z,100777.59
2023-04-21T00:54:45.657Z,100776.41
2023-04-21T00:57:12.319Z,100773.72
2023-04-21T00:59:38.685Z,100771.72
2023-04-21T01:02:07.903Z,100773.34
2023-04-21T01:04:38.966Z,100762.56
2023-04-21T01:07:07.292Z,100772.63
2023-04-21T01:09:34.769Z,100769.44
2023-04-21T01:12:11.574Z,100767.00
2023-04-21T01:14:39.626Z,100766.25
2023-04-21T01:17:08.010Z,100766.25
2023-04-21T01:19:42.099Z,100766.72
2023-04-21T01:22:12.942Z,100773.19
2023-04-21T01:24:45.079Z,100774.75
2023-04-21T01:27:20.336Z,100773.94
2023-04-21T01:29:49.851Z,100773.47
2023-04-21T01:32:19.399Z,100769.53
2023-04-21T01:34:46.289Z,100767.88
2023-04-21T01:37:15.718Z,100769.88
2023-04-21T01:39:44.719Z,100773.47
2023-04-21T01:42:11.697Z,100777.91
2023-04-21T01:44:39.108Z,100774.28
2023-04-21T01:47:06.215Z,100773.47
2023-04-21T01:49:32.848Z,100772.66
2023-04-21T01:51:59.426Z,100784.31
2023-04-21T01:54:26.386Z,100785.47
2023-04-21T01:56:52.818Z,100789.13
2023-04-21T01:59:19.458Z,100787.94
2023-04-21T02:01:46.334Z,100785.94
2023-04-21T02:04:12.914Z,100778.78
2023-04-21T02:06:39.592Z,100770.38
2023-04-21T02:09:06.145Z,100779.25
2023-04-21T02:11:32.803Z,100781.22
2023-04-21T02:14:01.494Z,100779.25
2023-04-21T02:16:27.884Z,100785.66
2023-04-21T02:18:56.876Z,100782.84
2023-04-21T02:21:24.419Z,100776.88
2023-04-21T02:23:52.362Z,100766.50
2023-04-21T02:26:19.705Z,100773.72
2023-04-21T02:28:46.702Z,100774.06
2023-04-21T02:31:13.725Z,100772.47
2023-04-21T02:33:40.358Z,100762.88
2023-04-21T02:36:06.944Z,100764.88
2023-04-21T02:38:33.344Z,100756.84
2023-04-21T02:40:59.923Z,100766.44
2023-04-21T02:43:26.923Z,100759.56
2023-04-21T02:45:53.308Z,100757.50
2023-04-21T02:48:25.102Z,100746.69
2023-04-21T02:50:53.883Z,100741.00
2023-04-21T02:53:21.075Z,100738.56
2023-04-21T02:55:47.996Z,100753.28
2023-04-21T02:58:14.779Z,100739.25
2023-04-21T03:00:41.482Z,100741.94
2023-04-21T03:03:08.415Z,100730.31
2023-04-21T03:05:36.263Z,100715.44
2023-04-21T03:08:02.947Z,100714.56
2023-04-21T03:10:29.379Z,100712.84
2023-04-21T03:12:56.346Z,100725.94
2023-04-21T03:15:23.016Z,100710.72
2023-04-21T03:17:52.010Z,100721.44
2023-04-21T03:20:18.604Z,100716.59
2023-04-21T03:22:44.990Z,100703.75
2023-04-21T03:25:12.127Z,100716.13
2023-04-21T03:27:41.792Z,100700.53
2023-04-21T03:30:08.951Z,100701.72
2023-04-21T03:32:35.552Z,100693.66
2023-04-21T03:35:01.954Z,100704.03
2023-04-21T03:37:28.668Z,100709.63
2023-04-21T03:39:55.301Z,100720.81
2023-04-21T03:42:26.029Z,100739.22
2023-04-21T03:44:52.352Z,100744.47
2023-04-21T03:47:18.697Z,100748.50
2023-04-21T03:49:45.282Z,100748.97
2023-04-21T03:52:11.983Z,100751.38
2023-04-21T03:54:38.397Z,100739.84
2023-04-21T03:57:05.413Z,100751.47
2023-04-21T03:59:31.998Z,100759.50
2023-04-21T04:01:58.376Z,100748.31
2023-04-21T04:04:24.900Z,100754.38
2023-04-21T04:06:51.414Z,100757.16
2023-04-21T04:09:18.237Z,100763.19
2023-04-21T04:11:44.865Z,100755.59
2023-04-21T04:14:11.400Z,100749.63
2023-04-21T04:16:38.032Z,100744.84
2023-04-21T04:19:04.986Z,100740.91
2023-04-21T04:21:32.626Z,100732.53
2023-04-21T04:23:59.388Z,100726.91
2023-04-21T04:26:26.440Z,100717.72
2023-04-21T04:28:53.397Z,100721.31
2023-04-21T04:31:20.073Z,100718.88
2023-04-21T04:33:46.563Z,100725.66
2023-04-21T04:36:12.997Z,100740.44
2023-04-21T04:38:40.264Z,100740.00
2023-04-21T04:41:09.077Z,100749.22
2023-04-21T04:43:41.732Z,100755.97
2023-04-21T04:46:13.307Z,100750.38
2023-04-21T04:48:39.963Z,100748.41
2023-04-21T04:51:06.804Z,100755.19
2023-04-21T04:53:33.237Z,100762.38
2023-04-21T04:55:59.811Z,100763.56
2023-04-21T04:58:26.693Z,100762.38
2023-04-21T05:00:53.162Z,100749.59
2023-04-21T05:03:22.117Z,100753.19
2023-04-21T05:05:48.596Z,100752.00
2023-04-21T05:08:17.247Z,100754.00
2023-04-21T05:10:44.663Z,100761.19
2023-04-21T05:13:11.027Z,100760.41
2023-04-21T05:15:37.679Z,100769.59
2023-04-21T05:18:04.366Z,100761.56
2023-04-21T05:20:30.878Z,100759.59
2023-04-21T05:22:57.272Z,100758.78
2023-04-21T05:25:23.754Z,100763.56
2023-04-21T05:27:50.447Z,100760.78
2023-04-21T05:30:18.045Z,100762.75
2023-04-21T05:32:44.442Z,100771.16
2023-04-21T05:35:11.262Z,100767.50
2023-04-21T05:37:37.647Z,100773.09
2023-04-21T05:40:04.852Z,100768.34
2023-04-21T05:42:31.206Z,100775.56
2023-04-21T05:44:58.087Z,100764.72
2023-04-21T05:47:24.424Z,100766.38
2023-04-21T05:49:54.234Z,100767.16
2023-04-21T05:52:21.810Z,100780.78
2023-04-21T05:54:48.347Z,100769.22
2023-04-21T05:57:16.540Z,100775.63
2023-04-21T05:59:43.911Z,100772.47
2023-04-21T06:02:11.622Z,100780.50
2023-04-21T06:04:38.207Z,100784.09
2023-04-21T06:07:09.689Z,100783.28
2023-04-21T06:09:36.722Z,100778.16
2023-04-21T06:12:03.428Z,100780.59
2023-04-21T06:14:30.067Z,100777.41
2023-04-21T06:16:56.433Z,100771.44
2023-04-21T06:19:22.859Z,100764.69
2023-04-21T06:21:49.274Z,100768.31
2023-04-21T06:24:16.821Z,100755.94
2023-04-21T06:26:43.465Z,100762.81
2023-04-21T06:29:10.043Z,100756.84
2023-04-21T06:31:36.780Z,100764.03
2023-04-21T06:34:03.397Z,100761.69
2023-04-21T06:36:30.876Z,100759.34
2023-04-21T06:38:57.262Z,100754.97
2023-04-21T06:41:24.903Z,100752.66
2023-04-21T06:43:51.411Z,100752.75
2023-04-21T06:46:18.378Z,100754.34
2023-04-21T06:48:44.925Z,100745.19
2023-04-21T06:51:12.663Z,100746.47
2023-04-21T06:53:41.640Z,100741.75
2023-04-21T06:56:07.987Z,100746.97
2023-04-21T06:58:34.360Z,100755.47
2023-04-21T07:01:01.217Z,100753.91
2023-04-21T07:03:30.160Z,100748.38
2023-04-21T07:05:56.729Z,100751.28
2023-04-21T07:08:23.129Z,100756.56
2023-04-21T07:10:49.510Z,100750.63
2023-04-21T07:13:17.921Z,100746.34
2023-04-21T07:15:44.568Z,100742.44
2023-04-21T07:18:11.271Z,100744.50
2023-04-21T07:20:37.962Z,100737.00
2023-04-21T07:23:04.374Z,100738.69
2023-04-21T07:25:30.988Z,100736.75
2023-04-21T07:27:57.428Z,100736.00
2023-04-21T07:30:23.830Z,100726.88
2023-04-21T07:32:50.488Z,100731.75
2023-04-21T07:35:17.245Z,100739.38
2023-04-21T07:37:44.267Z,100733.84
2023-04-21T07:40:12.582Z,100732.72
2023-04-21T07:42:39.457Z,100728.81
2023-04-21T07:45:07.683Z,100738.09
2023-04-21T07:47:34.469Z,100729.38
2023-04-21T07:50:01.210Z,100735.47
2023-04-21T07:52:27.600Z,100738.78
2023-04-21T07:54:53.946Z,100740.47
2023-04-21T07:57:20.380Z,100734.53
2023-04-21T07:59:46.984Z,100733.84
2023-04-21T08:02:13.483Z,100731.91
2023-04-21T08:04:40.280Z,100738.84
2023-04-21T08:07:09.981Z,100735.75
2023-04-21T08:09:36.623Z,100732.63
2023-04-21T08:12:03.065Z,100727.03
2023-04-21T08:14:29.721Z,100719.06
2023-04-21T08:16:57.631Z,100727.56
2023-04-21T08:19:24.241Z,100718.38
2023-04-21T08:21:50.599Z,100731.25
2023-04-21T08:24:17.055Z,100716.03
2023-04-21T08:26:43.842Z,100717.72
2023-04-21T08:29:10.760Z,100720.97
2023-04-21T08:31:37.306Z,100730.25
2023-04-21T08:34:03.973Z,100733.88
2023-04-21T08:36:31.696Z,100733.13
2023-04-21T08:38:59.039Z,100730.38
2023-04-21T08:41:26.493Z,100734.41
2023-04-21T08:43:54.206Z,100733.66
2023-04-21T08:46:21.672Z,100740.97
2023-04-21T08:48:48.322Z,100731.78
2023-04-21T08:51:27.736Z,100737.81
2023-04-21T08:53:55.414Z,100737.09
2023-04-21T08:56:22.288Z,100735.16
2023-04-21T08:58:48.686Z,100734.00
2023-04-21T09:01:15.400Z,100740.47
2023-04-21T09:03:42.957Z,100738.13
2023-04-21T09:06:10.643Z,100741.81
2023-04-21T09:08:42.227Z,100744.66
2023-04-21T09:11:08.817Z,100740.75
2023-04-21T09:13:38.979Z,100737.94
2023-04-21T09:16:16.926Z,100740.00
2023-04-21T09:18:44.629Z,100740.09
2023-04-21T09:21:16.466Z,100732.88
2023-04-21T09:23:43.718Z,100733.34
2023-04-21T09:26:11.263Z,100736.22
2023-04-21T09:28:41.589Z,100735.44
2023-04-21T09:31:15.639Z,100731.44
2023-04-21T09:33:57.633Z,100732.66
2023-04-21T09:36:28.529Z,100730.28
2023-04-21T09:41:28.267Z,100732.28
2023-04-21T09:43:55.268Z,100733.91
2023-04-21T09:46:22.715Z,100736.72
2023-04-21T09:48:49.762Z,100738.31
2023-04-21T09:53:52.490Z,100736.31
2023-04-21T09:56:22.361Z,100732.75
2023-04-21T09:58:53.882Z,100729.94
2023-04-21T10:01:21.115Z,100718.34
2023-04-21T10:03:53.401Z,100719.16
2023-04-21T10:06:20.058Z,100714.78
2023-04-21T10:08:48.426Z,100710.00
2023-04-21T10:11:16.335Z,100710.44
2023-04-21T10:13:43.312Z,100705.28
2023-04-21T10:16:10.997Z,100709.78
2023-04-21T10:18:47.392Z,100707.41
2023-04-21T10:21:26.763Z,100699.41
2023-04-21T10:23:54.399Z,100692.28
2023-04-21T10:26:26.097Z,100686.72
2023-04-21T10:29:04.802Z,100684.34
2023-04-21T10:31:55.718Z,100682.00
2023-04-21T10:34:29.931Z,100678.41
2023-04-21T10:36:56.429Z,100679.28
2023-04-21T10:39:43.734Z,100688.53
2023-04-21T10:42:16.220Z,100684.94
2023-04-21T10:44:51.915Z,100684.56
2023-04-21T10:47:37.216Z,100685.78
2023-04-21T10:50:18.547Z,100688.22
2023-04-21T10:52:54.914Z,100680.59
2023-04-21T10:55:22.552Z,100674.19
2023-04-21T10:57:51.730Z,100672.59
2023-04-21T11:00:21.733Z,100659.34
2023-04-21T11:02:58.417Z,100652.97
2023-04-21T11:05:29.784Z,100648.16
2023-04-21T11:08:06.306Z,100658.63
2023-04-21T11:10:49.395Z,100656.63
2023-04-21T11:13:18.495Z,100648.59
2023-04-21T11:16:07.264Z,100643.38
2023-04-21T11:18:38.783Z,100645.41
2023-04-21T11:21:21.391Z,100649.06
2023-04-21T11:23:49.740Z,100641.41
2023-04-21T11:26:18.218Z,100634.16
2023-04-21T11:28:47.896Z,100630.94
2023-04-21T11:31:14.400Z,100622.09
2023-04-21T11:33:40.950Z,100614.81
2023-04-21T11:36:08.380Z,100612.44
2023-04-21T11:38:40.059Z,100607.19
2023-04-21T11:41:07.630Z,100606.78
2023-04-21T11:43:34.089Z,100602.34
2023-04-21T11:46:33.821Z,100604.75
2023-04-21T11:49:16.555Z,100604.75
2023-04-21T11:51:44.246Z,100605.13
2023-04-21T11:54:12.829Z,100597.88
2023-04-21T11:56:43.309Z,100597.47
2023-04-21T11:59:12.056Z,100580.50
2023-04-21T12:01:51.838Z,100582.94
2023-04-21T12:04:21.166Z,100574.03
2023-04-21T12:07:01.647Z,100570.03
2023-04-21T12:09:29.875Z,100568.81
2023-04-21T12:11:58.641Z,100568.00
2023-04-21T12:14:28.970Z,100567.59
2023-04-21T12:16:57.293Z,100569.19
2023-04-21T12:19:37.202Z,100564.78
2023-04-21T12:22:10.638Z,100563.56
2023-04-21T12:24:38.048Z,100558.28
2023-04-21T12:27:05.802Z,100553.03
2023-04-21T12:29:35.008Z,100544.97
2023-04-21T12:32:02.307Z,100547.78
2023-04-21T12:34:28.872Z,100550.56
2023-04-21T12:36:55.417Z,100551.78
2023-04-21T12:39:22.143Z,100547.75
2023-04-21T12:41:48.834Z,100546.09
2023-04-21T12:44:15.457Z,100539.22
2023-04-21T12:46:42.205Z,100538.00
2023-04-21T12:49:10.014Z,100537.19
2023-04-21T12:51:36.703Z,100529.06
2023-04-21T12:54:03.500Z,100520.59
2023-04-21T12:56:30.431Z,100520.97
2023-04-21T12:58:58.095Z,100525.00
2023-04-21T13:01:24.821Z,100516.47
2023-04-21T13:03:51.423Z,100514.06
2023-04-21T13:06:18.223Z,100512.84
2023-04-21T13:08:44.821Z,100517.66
2023-04-21T13:11:11.475Z,100509.19
2023-04-21T13:13:38.980Z,100507.97
2023-04-21T13:16:06.084Z,100500.28
2023-04-21T13:18:34.802Z,100501.09
2023-04-21T13:21:01.677Z,100494.22
2023-04-21T13:23:28.328Z,100495.41
2023-04-21T13:25:55.972Z,100481.28
2023-04-21T13:28:23.048Z,100482.09
2023-04-21T13:30:52.683Z,100488.94
2023-04-21T13:33:19.821Z,100472.38
2023-04-21T13:35:46.469Z,100472.75
2023-04-21T13:38:13.051Z,100461.84
2023-04-21T13:40:39.432Z,100457.38
2023-04-21T13:43:06.111Z,100460.59
2023-04-21T13:45:32.741Z,100454.09
2023-04-21T13:47:59.262Z,100447.22
2023-04-21T13:50:25.798Z,100443.97
2023-04-21T13:52:52.590Z,100451.22
2023-04-21T13:55:20.376Z,100434.28
2023-04-21T13:57:47.120Z,100433.03
2023-04-21T14:00:14.376Z,100430.63
2023-04-21T14:02:41.874Z,100426.56
2023-04-21T14:05:08.754Z,100429.75
2023-04-21T14:07:36.598Z,100419.25
2023-04-21T14:10:04.307Z,100423.72
2023-04-21T14:12:30.730Z,100416.84
2023-04-21T14:14:57.368Z,100416.84
2023-04-21T14:17:23.786Z,100413.19
2023-04-21T14:19:51.172Z,100409.16
2023-04-21T14:22:19.584Z,100407.13
2023-04-21T14:24:46.182Z,100393.78
2023-04-21T14:27:12.760Z,100396.63
2023-04-21T14:29:39.186Z,100386.53
2023-04-21T14:32:05.994Z,100389.00
2023-04-21T14:34:32.734Z,100391.81
2023-04-21T14:37:00.493Z,100386.56
2023-04-21T14:39:27.251Z,100381.72
2023-04-21T14:41:56.861Z,100390.19
2023-04-21T14:44:23.644Z,100382.50
2023-04-21T14:47:00.934Z,100376.50
2023-04-21T14:49:33.036Z,100372.44
2023-04-21T14:51:59.652Z,100373.22
2023-04-21T14:54:26.120Z,100381.34
2023-04-21T14:56:58.100Z,100376.13
2023-04-21T14:59:29.916Z,100369.66
2023-04-21T15:01:56.527Z,100358.75
2023-04-21T15:04:23.892Z,100360.78
2023-04-21T15:06:52.352Z,100365.63
2023-04-21T15:09:19.556Z,100355.13
2023-04-21T15:11:46.828Z,100360.00
2023-04-21T15:14:13.689Z,100349.91
2023-04-21T15:16:43.885Z,100341.00
2023-04-21T15:19:10.996Z,100340.19
2023-04-21T15:21:37.586Z,100351.88
2023-04-21T15:24:03.977Z,100329.25
2023-04-21T15:26:31.773Z,100340.97
2023-04-21T15:28:59.416Z,100327.19
2023-04-21T15:31:26.016Z,100329.19
2023-04-21T15:33:52.697Z,100320.28
2023-04-21T15:36:19.109Z,100320.28
2023-04-21T15:38:45.579Z,100315.78
2023-04-21T15:41:11.974Z,100317.00
2023-04-21T15:43:38.626Z,100313.34
2023-04-21T15:46:12.865Z,100309.28
2023-04-21T15:48:41.168Z,100309.59
2023-04-21T15:51:08.721Z,100301.91
2023-04-21T15:53:35.444Z,100303.91
2023-04-21T15:56:01.825Z,100301.00
2023-04-21T15:58:28.208Z,100298.56
2023-04-21T16:00:54.743Z,100296.13
2023-04-21T16:03:21.869Z,100291.66
2023-04-21T16:05:48.954Z,100294.44
2023-04-21T16:08:15.613Z,100288.34
2023-04-21T16:10:42.016Z,100279.44
2023-04-21T16:13:08.446Z,100274.16
2023-04-21T16:15:35.201Z,100270.91
2023-04-21T16:18:06.374Z,100270.84
2023-04-21T16:20:33.049Z,100259.91
2023-04-21T16:22:59.934Z,100254.19
2023-04-21T16:25:27.123Z,100258.97
2023-04-21T16:27:53.602Z,100248.84
2023-04-21T16:30:20.976Z,100251.19
2023-04-21T16:32:49.143Z,100241.06
2023-04-21T16:35:15.890Z,100243.41
2023-04-21T16:37:44.254Z,100242.53
2023-04-21T16:40:11.378Z,100245.75
2023-04-21T16:42:37.850Z,100231.97
2023-04-21T16:45:06.562Z,100231.16
2023-04-21T16:47:39.665Z,100220.22
2023-04-21T16:50:09.095Z,100206.09
2023-04-21T16:52:35.883Z,100210.13
2023-04-21T16:55:02.314Z,100218.25
2023-04-21T16:57:29.717Z,100226.34
2023-04-21T16:59:56.373Z,100224.81
2023-04-21T17:02:22.831Z,100225.28
2023-04-21T17:04:49.367Z,100235.50
2023-04-21T17:07:16.084Z,100240.84
2023-04-21T17:09:42.710Z,100219.53
2023-04-21T17:12:09.699Z,100206.31
2023-04-21T17:14:36.627Z,100191.56
2023-04-21T17:17:03.700Z,100197.34
2023-04-21T17:19:32.847Z,100209.63
2023-04-21T17:21:59.476Z,100220.31
2023-04-21T17:24:26.129Z,100230.97
2023-04-21T17:26:52.974Z,100217.41
2023-04-21T17:29:19.358Z,100215.91
2023-04-21T17:31:45.774Z,100204.38
2023-04-21T17:34:12.491Z,100207.28
2023-04-21T17:36:40.802Z,100211.81
2023-04-21T17:39:08.267Z,100222.00
2023-04-21T17:41:34.603Z,100221.69
2023-04-21T17:44:01.102Z,100223.38
2023-04-21T17:46:27.554Z,100222.63
2023-04-21T17:48:54.429Z,100225.50
2023-04-21T17:51:21.015Z,100213.03
2023-04-21T17:53:47.326Z,100208.28
2023-04-21T17:56:14.488Z,100213.97
2023-04-21T17:58:41.870Z,100205.53
2023-04-21T18:01:08.580Z,100211.19
2023-04-21T18:03:36.391Z,100203.97
2023-04-21T18:06:04.778Z,100205.19
2023-04-21T18:08:32.395Z,100204.44
2023-04-21T18:10:58.776Z,100200.41
2023-04-21T18:13:25.229Z,100198.03
2023-04-21T18:15:52.974Z,100193.63
2023-04-21T18:18:19.414Z,100192.06
2023-04-21T18:20:45.841Z,100195.69
2023-04-21T18:23:12.241Z,100190.47
2023-04-21T18:25:42.728Z,100198.97
2023-04-21T18:28:31.914Z,100197.38
2023-04-21T18:30:58.451Z,100193.78
2023-04-21T18:33:26.699Z,100199.03
2023-04-21T18:35:53.045Z,100195.84
2023-04-21T18:38:19.618Z,100189.44
2023-04-21T18:40:46.325Z,100195.50
2023-04-21T18:43:15.696Z,100204.38
2023-04-21T18:45:42.113Z,100204.38
2023-04-21T18:48:08.633Z,100203.53
2023-04-21T18:50:39.488Z,100208.00
2023-04-21T18:53:07.784Z,100205.19
2023-04-21T18:55:37.297Z,100206.03
2023-04-21T18:58:04.380Z,100206.44
2023-04-21T19:00:32.183Z,100205.63
2023-04-21T19:03:02.279Z,100206.84
2023-04-21T19:05:31.627Z,100207.66
2023-04-21T19:07:58.922Z,100207.66
2023-04-21T19:10:26.259Z,100207.69
2023-04-21T19:12:53.081Z,100206.88
2023-04-21T19:15:21.152Z,100220.16
2023-04-21T19:17:50.320Z,100209.69
2023-04-21T19:20:17.897Z,100223.78
2023-04-21T19:22:44.576Z,100228.19
2023-04-21T19:25:11.893Z,100235.44
2023-04-21T19:27:46.488Z,100236.66
2023-04-21T19:30:13.417Z,100225.78
2023-04-21T19:32:40.011Z,100229.81
2023-04-21T19:35:09.624Z,100235.03
2023-04-21T19:37:36.291Z,100231.00
2023-04-21T19:40:03.986Z,100236.63
2023-04-21T19:42:30.876Z,100226.22
2023-04-21T19:44:57.677Z,100219.75
2023-04-21T19:47:24.100Z,100224.97
2023-04-21T19:49:50.569Z,100225.41
2023-04-21T19:52:17.197Z,100222.16
2023-04-21T19:54:43.864Z,100221.78
2023-04-21T19:57:10.501Z,100210.91
2023-04-21T19:59:37.121Z,100206.50
2023-04-21T20:02:04.835Z,100210.88
2023-04-21T20:04:37.547Z,100210.50
2023-04-21T20:07:04.008Z,100210.50
2023-04-21T20:09:31.204Z,100210.06
2023-04-21T20:11:57.829Z,100206.88
2023-04-21T20:14:24.598Z,100211.69
2023-04-21T20:16:51.267Z,100208.88
2023-04-21T20:19:17.839Z,100200.84
2023-04-21T20:21:44.600Z,100211.28
2023-04-21T20:24:11.044Z,100200.84
2023-04-21T20:26:37.445Z,100213.31
2023-04-21T20:29:04.573Z,100214.91
2023-04-21T20:31:31.882Z,100209.66
2023-04-21T20:34:00.813Z,100209.28
2023-04-21T20:36:28.513Z,100275.56
2023-04-21T20:38:57.743Z,100259.50
2023-04-21T20:41:25.003Z,100275.16
2023-04-21T20:43:54.005Z,100264.31
2023-04-21T20:46:20.685Z,100265.13
2023-04-21T20:48:47.103Z,100252.66
2023-04-21T20:51:13.472Z,100272.75
2023-04-21T20:53:40.867Z,100246.25
2023-04-21T20:56:09.635Z,100272.78
2023-04-21T20:58:36.952Z,100283.66
2023-04-21T21:01:03.386Z,100274.78
2023-04-21T21:03:30.946Z,100281.22
2023-04-21T21:05:58.747Z,100269.59
2023-04-21T21:08:25.520Z,100261.16
2023-04-21T21:10:52.778Z,100266.78
2023-04-21T21:13:21.334Z,100262.34
2023-04-21T21:15:50.105Z,100261.53
2023-04-21T21:18:16.574Z,100255.13
2023-04-21T21:20:43.157Z,100264.34
2023-04-21T21:23:09.666Z,100239.03
2023-04-21T21:25:36.051Z,100257.50
2023-04-21T21:28:04.697Z,100252.66
2023-04-21T21:30:31.072Z,100255.50
2023-04-21T21:32:57.617Z,100261.09
2023-04-21T21:35:24.191Z,100267.50
2023-04-21T21:37:50.515Z,100261.06
2023-04-21T21:40:16.902Z,100269.13
2023-04-21T21:42:43.505Z,100262.69
2023-04-21T21:45:11.042Z,100270.72
2023-04-21T21:47:41.785Z,100267.47
2023-04-21T21:50:12.303Z,100261.88
2023-04-21T21:52:38.615Z,100253.44
2023-04-21T21:55:05.594Z,100257.81
2023-04-21T21:57:32.254Z,100257.44
2023-04-21T22:00:00.366Z,100240.16
2023-04-21T22:02:26.845Z,100243.34
2023-04-21T22:04:55.198Z,100234.53
2023-04-21T22:07:25.167Z,100232.09
2023-04-21T22:09:52.242Z,100234.53
2023-04-21T22:12:18.686Z,100235.72
2023-04-21T22:14:46.642Z,100230.47
2023-04-21T22:17:13.079Z,100234.91
2023-04-21T22:19:41.668Z,100235.72
2023-04-21T22:22:08.235Z,100244.13
2023-04-21T22:24:34.886Z,100235.31
2023-04-21T22:27:02.043Z,100231.28
2023-04-21T22:29:28.394Z,100236.09
2023-04-21T22:31:54.933Z,100236.50
2023-04-21T22:34:21.449Z,100236.88
2023-04-21T22:36:47.906Z,100239.28
2023-04-21T22:39:14.286Z,100241.69
2023-04-21T22:41:41.011Z,100239.28
2023-04-21T22:44:07.434Z,100236.88
2023-04-21T22:46:34.008Z,100250.50
2023-04-21T22:49:03.348Z,100246.47
2023-04-21T22:51:32.542Z,100244.88
2023-04-21T22:54:00.187Z,100242.44
2023-04-21T22:56:28.411Z,100240.44
2023-04-21T22:58:54.798Z,100239.22
2023-04-21T23:01:21.483Z,100246.03
2023-04-21T23:03:48.282Z,100246.03
2023-04-21T23:06:15.048Z,100245.59
2023-04-21T23:08:41.439Z,100242.34
2023-04-21T23:11:07.904Z,100237.94
2023-04-21T23:13:34.261Z,100244.75
2023-04-21T23:16:01.186Z,100242.38
2023-04-21T23:18:27.867Z,100244.75
2023-04-21T23:20:54.785Z,100245.16
2023-04-21T23:23:21.294Z,100241.09
2023-04-21T23:25:47.632Z,100242.72
2023-04-21T23:28:14.297Z,100245.50
2023-04-21T23:30:40.764Z,100243.50
2023-04-21T23:33:07.196Z,100240.66
2023-04-21T23:35:33.826Z,100229.41
2023-04-21T23:38:00.239Z,100233.81
2023-04-21T23:40:27.367Z,100219.75
2023-04-21T23:42:53.960Z,100213.31
2023-04-21T23:45:23.800Z,100228.13
2023-04-21T23:47:50.272Z,100228.13
2023-04-21T23:50:16.807Z,100214.88
2023-04-21T23:52:44.370Z,100226.47
2023-04-21T23:55:13.832Z,100227.25
2023-04-21T23:57:40.467Z,100232.00
